createdAt,value
2022-09-29T00:02:08.689Z,2.67
2022-09-29T00:04:35.374Z,2.88
2022-09-29T00:07:02.106Z,2.88
2022-09-29T00:09:28.792Z,3.35
2022-09-29T00:11:56.290Z,3.88
2022-09-29T00:14:23.732Z,13.40
2022-09-29T00:16:50.671Z,14.00
2022-09-29T00:19:17.410Z,13.07
2022-09-29T00:21:44.064Z,6.32
2022-09-29T00:24:10.914Z,4.95
2022-09-29T00:26:37.734Z,10.23
2022-09-29T00:29:05.031Z,9.55
2022-09-29T00:31:34.271Z,3.92
2022-09-29T00:34:01.064Z,3.97
2022-09-29T00:36:31.162Z,3.70
2022-09-29T00:38:59.354Z,3.05
2022-09-29T00:41:28.960Z,2.83
2022-09-29T00:44:05.668Z,2.90
2022-09-29T00:46:45.067Z,2.80
2022-09-29T00:49:11.671Z,4.25
2022-09-29T00:51:40.484Z,3.65
2022-09-29T00:54:08.565Z,3.40
2022-09-29T00:56:38.460Z,8.68
2022-09-29T00:59:08.526Z,11.48
2022-09-29T01:01:35.839Z,15.65
2022-09-29T01:04:11.333Z,4.53
2022-09-29T01:06:49.690Z,4.72
2022-09-29T01:09:23.505Z,12.15
2022-09-29T01:11:52.760Z,4.70
2022-09-29T01:14:20.848Z,3.28
2022-09-29T01:16:47.821Z,3.30
2022-09-29T01:19:36.181Z,4.47
2022-09-29T01:22:24.811Z,3.67
2022-09-29T01:25:21.563Z,3.95
2022-09-29T01:28:48.655Z,4.00
2022-09-29T01:31:37.223Z,3.28
2022-09-29T01:34:27.682Z,3.78
2022-09-29T01:37:27.865Z,5.63
2022-09-29T01:40:28.165Z,13.75
2022-09-29T01:43:01.967Z,7.20
2022-09-29T01:45:39.225Z,11.18
2022-09-29T01:48:17.228Z,7.93
2022-09-29T01:50:51.054Z,7.28
2022-09-29T01:53:33.855Z,5.82
2022-09-29T01:56:06.401Z,4.60
2022-09-29T01:58:43.549Z,2.90
2022-09-29T02:01:13.234Z,3.70
2022-09-29T02:06:52.992Z,4.10
2022-09-29T02:09:25.981Z,3.67
2022-09-29T02:11:54.193Z,3.90
2022-09-29T02:14:25.025Z,4.40
2022-09-29T02:17:10.579Z,3.30
2022-09-29T02:19:40.591Z,2.83
2022-09-29T02:22:07.313Z,2.83
2022-09-29T02:24:34.383Z,3.22
2022-09-29T02:27:02.362Z,4.70
2022-09-29T02:29:29.187Z,3.53
2022-09-29T02:31:57.368Z,3.20
2022-09-29T02:34:24.778Z,2.80
2022-09-29T02:37:33.375Z,2.17
2022-09-29T02:40:37.353Z,1.95
2022-09-29T02:43:15.509Z,2.25
2022-09-29T02:46:17.241Z,2.30
2022-09-29T02:48:56.570Z,1.88
2022-09-29T02:51:36.599Z,2.25
2022-09-29T02:54:20.017Z,3.63
2022-09-29T02:57:11.463Z,2.72
2022-09-29T02:59:43.223Z,2.47
2022-09-29T03:02:09.806Z,3.63
2022-09-29T03:04:36.490Z,2.65
2022-09-29T03:07:03.127Z,2.33
2022-09-29T03:09:29.707Z,2.50
2022-09-29T03:11:56.420Z,3.83
2022-09-29T03:14:22.994Z,2.75
2022-09-29T03:16:49.894Z,3.30
2022-09-29T03:19:16.527Z,6.18
2022-09-29T03:21:43.173Z,5.53
2022-09-29T03:24:09.797Z,4.63
2022-09-29T03:26:36.471Z,4.95
2022-09-29T03:29:03.189Z,5.45
2022-09-29T03:31:29.895Z,5.93
2022-09-29T03:33:56.630Z,5.50
2022-09-29T03:36:23.319Z,4.35
2022-09-29T03:38:49.957Z,3.88
2022-09-29T03:41:16.676Z,3.25
2022-09-29T03:43:43.344Z,2.85
2022-09-29T03:46:10.180Z,3.40
2022-09-29T03:48:36.889Z,3.13
2022-09-29T03:51:03.970Z,2.53
2022-09-29T03:53:31.104Z,2.42
2022-09-29T03:55:57.849Z,2.67
2022-09-29T03:58:24.771Z,2.03
2022-09-29T04:00:51.477Z,2.95
2022-09-29T04:03:19.496Z,4.30
2022-09-29T04:05:47.729Z,3.20
2022-09-29T04:08:15.679Z,3.40
2022-09-29T04:10:42.928Z,3.92
2022-09-29T04:13:09.858Z,2.92
2022-09-29T04:15:36.500Z,2.40
2022-09-29T04:18:03.372Z,2.55
2022-09-29T04:20:30.172Z,3.13
2022-09-29T04:22:56.811Z,2.70
2022-09-29T04:25:23.489Z,2.90
2022-09-29T04:27:50.593Z,2.60
2022-09-29T04:30:18.363Z,2.22
2022-09-29T04:32:44.993Z,2.75
2022-09-29T04:35:11.763Z,3.75
2022-09-29T04:37:38.624Z,4.38
2022-09-29T04:40:06.064Z,3.60
2022-09-29T04:42:33.041Z,3.53
2022-09-29T04:44:59.729Z,3.17
2022-09-29T04:47:26.481Z,3.78
2022-09-29T04:49:53.168Z,3.53
2022-09-29T04:52:19.840Z,3.42
2022-09-29T04:54:46.485Z,3.22
2022-09-29T04:57:13.209Z,3.38
2022-09-29T04:59:39.868Z,4.00
2022-09-29T05:02:06.637Z,3.53
2022-09-29T05:04:33.343Z,4.22
2022-09-29T05:06:59.948Z,3.20
2022-09-29T05:09:31.124Z,3.10
2022-09-29T05:11:59.904Z,2.70
2022-09-29T05:14:26.559Z,2.88
2022-09-29T05:16:55.139Z,3.10
2022-09-29T05:19:21.955Z,3.13
2022-09-29T05:21:48.928Z,3.33
2022-09-29T05:24:15.579Z,3.38
2022-09-29T05:26:42.205Z,4.20
2022-09-29T05:29:08.805Z,3.25
2022-09-29T05:31:35.528Z,4.10
2022-09-29T05:34:02.302Z,4.00
2022-09-29T05:36:29.072Z,3.92
2022-09-29T05:38:56.224Z,3.83
2022-09-29T05:41:23.321Z,3.63
2022-09-29T05:43:51.027Z,3.97
2022-09-29T05:46:19.373Z,3.45
2022-09-29T05:48:46.975Z,3.72
2022-09-29T05:51:19.466Z,3.80
2022-09-29T05:53:49.876Z,3.25
2022-09-29T05:56:22.458Z,3.65
2022-09-29T05:58:49.083Z,3.60
2022-09-29T06:01:18.907Z,4.57
2022-09-29T06:03:45.939Z,4.35
2022-09-29T06:06:18.961Z,4.65
2022-09-29T06:08:46.589Z,4.55
2022-09-29T06:11:16.204Z,4.40
2022-09-29T06:13:48.371Z,4.47
2022-09-29T06:16:16.622Z,5.20
2022-09-29T06:18:43.385Z,4.43
2022-09-29T06:21:12.942Z,3.85
2022-09-29T06:23:39.838Z,4.15
2022-09-29T06:26:09.900Z,4.20
2022-09-29T06:28:36.811Z,5.00
2022-09-29T06:31:10.499Z,5.43
2022-09-29T06:33:37.990Z,4.45
2022-09-29T06:36:40.539Z,4.70
2022-09-29T06:39:09.981Z,5.13
2022-09-29T06:41:36.702Z,5.13
2022-09-29T06:44:03.959Z,3.80
2022-09-29T06:46:30.789Z,5.10
2022-09-29T06:48:57.400Z,4.93
2022-09-29T06:51:34.789Z,4.18
2022-09-29T06:54:11.499Z,4.97
2022-09-29T06:56:39.050Z,5.70
2022-09-29T06:59:05.911Z,5.32
2022-09-29T07:01:32.709Z,5.95
2022-09-29T07:04:02.717Z,5.60
2022-09-29T07:06:30.485Z,5.55
2022-09-29T07:08:58.952Z,6.93
2022-09-29T07:11:26.309Z,6.28
2022-09-29T07:13:54.694Z,7.50
2022-09-29T07:16:23.990Z,7.85
2022-09-29T07:18:51.722Z,8.00
2022-09-29T07:21:19.061Z,8.40
2022-09-29T07:23:46.999Z,8.18
2022-09-29T07:26:16.549Z,8.02
2022-09-29T07:31:16.586Z,8.80
2022-09-29T07:33:44.445Z,8.27
2022-09-29T07:36:11.859Z,7.47
2022-09-29T07:38:38.470Z,7.53
2022-09-29T07:41:08.231Z,8.23
2022-09-29T07:46:02.039Z,8.43
2022-09-29T07:48:31.947Z,9.38
2022-09-29T07:51:19.873Z,10.25
2022-09-29T07:53:47.239Z,10.85
2022-09-29T07:56:20.017Z,11.50
2022-09-29T07:58:48.332Z,10.70
2022-09-29T08:01:16.207Z,10.02
2022-09-29T08:03:47.149Z,11.63
2022-09-29T08:06:13.937Z,12.48
2022-09-29T08:08:46.834Z,13.02
2022-09-29T08:11:30.540Z,13.27
2022-09-29T08:13:58.516Z,14.50
2022-09-29T08:16:25.491Z,13.77
2022-09-29T08:18:52.138Z,13.80
2022-09-29T08:21:18.730Z,14.80
2022-09-29T08:23:45.704Z,15.85
2022-09-29T08:26:17.440Z,15.93
2022-09-29T08:28:45.371Z,16.00
2022-09-29T08:31:20.336Z,16.58
2022-09-29T08:33:51.289Z,17.05
2022-09-29T08:36:21.549Z,17.70
2022-09-29T08:38:51.026Z,16.83
2022-09-29T08:41:38.769Z,16.05
2022-09-29T08:44:29.186Z,16.63
2022-09-29T08:47:11.192Z,17.13
2022-09-29T08:49:58.222Z,17.90
2022-09-29T08:52:28.503Z,16.48
2022-09-29T08:55:09.447Z,18.50
2022-09-29T08:57:41.888Z,16.08
2022-09-29T09:00:13.422Z,15.93
2022-09-29T09:02:59.229Z,17.60
2022-09-29T09:05:44.769Z,17.73
2022-09-29T09:08:29.429Z,19.13
2022-09-29T09:11:22.892Z,20.92
2022-09-29T09:14:11.161Z,22.35
2022-09-29T09:16:59.142Z,22.38
2022-09-29T09:19:49.213Z,22.98
2022-09-29T09:22:22.676Z,23.33
2022-09-29T09:25:18.929Z,23.65
2022-09-29T09:27:56.466Z,22.23
2022-09-29T09:30:23.257Z,22.42
2022-09-29T09:32:56.333Z,23.52
2022-09-29T09:35:53.231Z,23.08
2022-09-29T09:38:28.224Z,23.13
2022-09-29T09:40:58.279Z,22.13
2022-09-29T09:43:57.252Z,22.35
2022-09-29T09:46:34.638Z,23.00
2022-09-29T09:49:24.899Z,21.73
2022-09-29T09:52:04.696Z,19.85
2022-09-29T09:54:35.382Z,20.85
2022-09-29T09:57:26.916Z,20.30
2022-09-29T10:00:08.818Z,19.52
2022-09-29T10:02:37.212Z,21.23
2022-09-29T10:05:07.545Z,19.65
2022-09-29T10:07:36.193Z,18.67
2022-09-29T10:10:05.585Z,20.30
2022-09-29T10:12:32.215Z,21.05
2022-09-29T10:15:12.523Z,19.52
2022-09-29T10:17:45.086Z,19.00
2022-09-29T10:20:12.218Z,19.55
2022-09-29T10:22:39.216Z,20.63
2022-09-29T10:25:20.152Z,18.67
2022-09-29T10:27:53.138Z,20.85
2022-09-29T10:30:32.533Z,19.98
2022-09-29T10:33:03.795Z,19.00
2022-09-29T10:35:39.122Z,20.60
2022-09-29T10:38:17.888Z,19.83
2022-09-29T10:40:57.345Z,21.13
2022-09-29T10:43:35.196Z,21.75
2022-09-29T10:46:01.958Z,21.92
2022-09-29T10:48:28.663Z,21.05
2022-09-29T10:51:04.045Z,20.02
2022-09-29T10:53:38.984Z,20.15
2022-09-29T10:56:16.967Z,18.92
2022-09-29T10:59:00.469Z,18.95
2022-09-29T11:01:32.699Z,18.80
2022-09-29T11:06:34.053Z,19.58
2022-09-29T11:09:01.926Z,18.52
2022-09-29T11:11:34.585Z,18.25
2022-09-29T11:14:01.664Z,18.20
2022-09-29T11:16:38.296Z,16.90
2022-09-29T11:19:11.088Z,19.30
2022-09-29T11:21:52.391Z,20.38
2022-09-29T11:24:57.849Z,18.17
2022-09-29T11:27:39.823Z,18.52
2022-09-29T11:30:19.354Z,17.00
2022-09-29T11:33:05.201Z,19.80
2022-09-29T11:35:36.631Z,17.23
2022-09-29T11:38:25.942Z,17.73
2022-09-29T11:41:10.790Z,17.55
2022-09-29T11:43:51.730Z,16.33
2022-09-29T11:46:27.459Z,14.60
2022-09-29T11:49:10.778Z,16.98
2022-09-29T11:52:05.697Z,16.85
2022-09-29T11:54:38.178Z,14.65
2022-09-29T11:57:17.481Z,14.95
2022-09-29T12:00:09.753Z,13.68
2022-09-29T12:02:58.304Z,16.10
2022-09-29T12:05:52.876Z,15.70
2022-09-29T12:08:56.428Z,14.45
2022-09-29T12:11:50.889Z,14.48
2022-09-29T12:14:45.995Z,13.57
2022-09-29T12:17:16.099Z,13.43
2022-09-29T12:19:45.118Z,12.77
2022-09-29T12:22:18.689Z,12.68
2022-09-29T12:24:53.649Z,11.57
2022-09-29T12:27:25.093Z,11.77
2022-09-29T12:30:18.176Z,12.02
2022-09-29T12:32:58.417Z,10.18
2022-09-29T12:36:26.304Z,9.50
2022-09-29T12:38:56.805Z,8.93
2022-09-29T12:41:28.891Z,9.25
2022-09-29T12:44:06.777Z,8.60
2022-09-29T12:46:49.175Z,9.32
2022-09-29T12:49:18.885Z,9.38
2022-09-29T12:54:37.749Z,9.32
2022-09-29T12:57:05.527Z,7.90
2022-09-29T12:59:49.810Z,7.03
2022-09-29T13:02:36.126Z,7.28
2022-09-29T13:05:40.827Z,9.02
2022-09-29T13:08:42.768Z,7.55
2022-09-29T13:11:37.665Z,7.22
2022-09-29T13:14:18.346Z,7.90
2022-09-29T13:16:57.286Z,7.18
2022-09-29T13:19:56.370Z,7.28
2022-09-29T13:22:50.279Z,6.72
2022-09-29T13:25:41.648Z,7.75
2022-09-29T13:28:28.082Z,8.07
2022-09-29T13:30:59.294Z,7.47
2022-09-29T13:33:26.897Z,7.50
2022-09-29T13:35:54.245Z,7.57
2022-09-29T13:38:31.023Z,7.35
2022-09-29T13:41:17.082Z,7.65
2022-09-29T13:43:52.542Z,7.10
2022-09-29T13:46:31.190Z,6.72
2022-09-29T13:49:12.549Z,6.25
2022-09-29T13:51:50.571Z,6.45
2022-09-29T13:54:30.310Z,6.68
2022-09-29T13:59:55.017Z,5.78
2022-09-29T14:03:01.044Z,5.38
2022-09-29T14:05:27.618Z,5.00
2022-09-29T14:10:42.396Z,4.75
2022-09-29T14:13:31.276Z,5.07
2022-09-29T14:16:30.559Z,4.95
2022-09-29T14:18:59.995Z,4.88
2022-09-29T14:21:55.164Z,5.32
2022-09-29T14:24:37.188Z,4.82
2022-09-29T14:27:30.554Z,4.68
2022-09-29T14:30:11.994Z,4.28
2022-09-29T14:32:56.711Z,4.53
2022-09-29T14:35:33.981Z,4.88
2022-09-29T14:38:06.523Z,4.93
2022-09-29T14:40:33.304Z,4.60
2022-09-29T14:43:12.314Z,3.80
2022-09-29T14:46:06.376Z,4.90
2022-09-29T14:49:11.343Z,4.18
2022-09-29T14:51:58.080Z,3.65
2022-09-29T14:54:30.208Z,3.88
2022-09-29T14:57:02.900Z,4.03
2022-09-29T14:59:56.472Z,3.97
2022-09-29T15:02:28.935Z,4.72
2022-09-29T15:04:55.988Z,4.00
2022-09-29T15:07:25.696Z,3.47
2022-09-29T15:12:30.448Z,4.10
2022-09-29T15:14:58.144Z,3.00
2022-09-29T15:17:49.626Z,4.60
2022-09-29T15:20:23.085Z,4.05
2022-09-29T15:23:24.364Z,3.92
2022-09-29T15:25:55.863Z,4.22
2022-09-29T15:28:31.923Z,4.25
2022-09-29T15:31:04.029Z,4.45
2022-09-29T15:33:35.492Z,3.50
2022-09-29T15:36:05.961Z,3.70
2022-09-29T15:38:38.724Z,4.03
2022-09-29T15:41:11.214Z,4.32
2022-09-29T15:43:42.703Z,3.90
2022-09-29T15:46:21.846Z,4.60
2022-09-29T15:49:18.114Z,4.20
2022-09-29T15:52:14.816Z,5.00
2022-09-29T15:54:47.562Z,4.47
2022-09-29T15:57:43.431Z,4.90
2022-09-29T16:00:21.962Z,4.72
2022-09-29T16:02:51.573Z,4.57
2022-09-29T16:05:22.917Z,5.43
2022-09-29T16:07:58.219Z,4.10
2022-09-29T16:10:29.619Z,4.28
2022-09-29T16:13:02.862Z,3.53
2022-09-29T16:15:32.810Z,4.75
2022-09-29T16:18:15.632Z,4.85
2022-09-29T16:20:44.660Z,5.63
2022-09-29T16:23:29.503Z,4.65
2022-09-29T16:26:08.255Z,4.22
2022-09-29T16:28:37.899Z,4.63
2022-09-29T16:31:14.960Z,4.28
2022-09-29T16:33:46.168Z,4.18
2022-09-29T16:36:21.353Z,4.28
2022-09-29T16:38:51.525Z,3.35
2022-09-29T16:41:18.111Z,3.88
2022-09-29T16:43:46.700Z,4.05
2022-09-29T16:46:20.923Z,4.05
2022-09-29T16:48:49.225Z,4.60
2022-09-29T16:51:38.608Z,3.80
2022-09-29T16:54:05.844Z,4.28
2022-09-29T16:56:35.177Z,5.60
2022-09-29T16:59:11.485Z,5.93
2022-09-29T17:01:40.973Z,4.05
2022-09-29T17:04:08.579Z,4.43
2022-09-29T17:06:35.860Z,4.75
2022-09-29T17:09:04.610Z,5.20
2022-09-29T17:11:31.385Z,5.57
2022-09-29T17:13:58.002Z,6.25
2022-09-29T17:16:26.089Z,5.50
2022-09-29T17:18:53.614Z,5.95
2022-09-29T17:21:20.500Z,5.15
2022-09-29T17:23:47.141Z,4.25
2022-09-29T17:26:41.646Z,4.53
2022-09-29T17:29:08.260Z,4.22
2022-09-29T17:31:35.517Z,4.07
2022-09-29T17:34:02.675Z,5.40
2022-09-29T17:36:29.413Z,6.38
2022-09-29T17:38:55.988Z,19.70
2022-09-29T17:41:22.802Z,6.50
2022-09-29T17:43:49.531Z,6.70
2022-09-29T17:46:16.604Z,5.82
2022-09-29T17:48:43.467Z,5.35
2022-09-29T17:51:13.759Z,5.90
2022-09-29T17:53:41.543Z,5.90
2022-09-29T17:56:21.279Z,17.20
2022-09-29T18:01:19.931Z,70.00
2022-09-29T18:03:47.010Z,11.05
2022-09-29T18:06:21.927Z,9.13
2022-09-29T18:08:54.017Z,8.57
2022-09-29T18:11:24.416Z,10.02
2022-09-29T18:13:51.623Z,37.03
2022-09-29T18:16:21.409Z,13.18
2022-09-29T18:18:48.541Z,9.80
2022-09-29T18:21:18.770Z,7.80
2022-09-29T18:23:45.395Z,6.97
2022-09-29T18:26:12.835Z,7.03
2022-09-29T18:28:39.494Z,6.80
2022-09-29T18:31:12.892Z,6.40
2022-09-29T18:33:39.737Z,6.82
2022-09-29T18:36:06.429Z,6.60
2022-09-29T18:38:33.101Z,6.15
2022-09-29T18:41:01.245Z,5.72
2022-09-29T18:43:28.845Z,7.05
2022-09-29T18:45:55.907Z,7.22
2022-09-29T18:48:22.753Z,7.85
2022-09-29T18:50:51.556Z,6.50
2022-09-29T18:53:20.418Z,5.30
2022-09-29T18:55:49.391Z,5.60
2022-09-29T18:58:18.483Z,5.50
2022-09-29T19:00:48.005Z,5.78
2022-09-29T19:03:14.753Z,5.50
2022-09-29T19:05:43.055Z,4.90
2022-09-29T19:08:13.140Z,5.28
2022-09-29T19:10:42.041Z,4.07
2022-09-29T19:13:16.029Z,4.83
2022-09-29T19:15:44.698Z,6.13
2022-09-29T19:18:22.445Z,6.38
2022-09-29T19:20:51.063Z,5.60
2022-09-29T19:23:19.628Z,5.88
2022-09-29T19:25:48.270Z,7.45
2022-09-29T19:28:16.078Z,6.68
2022-09-29T19:30:43.513Z,5.10
2022-09-29T19:33:14.629Z,4.82
2022-09-29T19:35:50.464Z,4.53
2022-09-29T19:38:17.590Z,4.13
2022-09-29T19:40:45.802Z,4.30
2022-09-29T19:43:13.780Z,3.90
2022-09-29T19:45:40.951Z,4.15
2022-09-29T19:48:10.160Z,3.95
2022-09-29T19:50:55.615Z,4.25
2022-09-29T19:53:22.283Z,3.60
2022-09-29T19:55:48.906Z,4.25
2022-09-29T19:58:16.398Z,3.42
2022-09-29T20:00:43.089Z,4.20
2022-09-29T20:03:10.191Z,3.88
2022-09-29T20:05:37.702Z,7.53
2022-09-29T20:08:05.127Z,12.20
2022-09-29T20:10:32.534Z,19.13
2022-09-29T20:12:59.384Z,7.00
2022-09-29T20:15:26.331Z,5.78
2022-09-29T20:17:52.951Z,4.35
2022-09-29T20:20:22.901Z,4.70
2022-09-29T20:22:50.150Z,6.55
2022-09-29T20:25:17.183Z,11.43
2022-09-29T20:27:44.109Z,5.18
2022-09-29T20:30:11.175Z,4.32
2022-09-29T20:32:38.032Z,4.90
2022-09-29T20:35:05.770Z,6.60
2022-09-29T20:37:32.631Z,8.50
2022-09-29T20:40:00.358Z,8.73
2022-09-29T20:42:27.347Z,9.80
2022-09-29T20:44:56.107Z,6.95
2022-09-29T20:47:26.127Z,7.25
2022-09-29T20:52:22.987Z,5.97
2022-09-29T20:54:49.794Z,7.32
2022-09-29T20:57:17.091Z,6.38
2022-09-29T20:59:43.929Z,6.55
2022-09-29T21:02:11.955Z,6.22
2022-09-29T21:04:39.202Z,6.10
2022-09-29T21:07:25.830Z,5.82
2022-09-29T21:09:53.021Z,5.88
2022-09-29T21:12:19.765Z,7.18
2022-09-29T21:14:46.383Z,7.82
2022-09-29T21:17:12.976Z,8.98
2022-09-29T21:19:39.669Z,22.33
2022-09-29T21:22:06.312Z,57.40
2022-09-29T21:24:33.772Z,45.95
2022-09-29T21:27:00.400Z,34.53
2022-09-29T21:29:27.036Z,45.28
2022-09-29T21:31:53.936Z,50.20
2022-09-29T21:34:21.067Z,69.05
2022-09-29T21:36:47.835Z,90.22
2022-09-29T21:39:14.576Z,101.72
2022-09-29T21:41:43.060Z,125.05
2022-09-29T21:44:23.196Z,79.65
2022-09-29T21:46:50.437Z,17.05
2022-09-29T21:49:19.145Z,14.07
2022-09-29T21:51:48.693Z,13.93
2022-09-29T21:54:24.784Z,12.35
2022-09-29T21:56:52.089Z,11.35
2022-09-29T21:59:20.796Z,9.35
2022-09-29T22:01:48.024Z,10.30
2022-09-29T22:04:15.918Z,10.90
2022-09-29T22:06:44.852Z,9.95
2022-09-29T22:09:17.090Z,8.05
2022-09-29T22:11:44.056Z,8.00
2022-09-29T22:14:13.056Z,7.03
2022-09-29T22:16:39.973Z,7.47
2022-09-29T22:19:24.073Z,7.07
2022-09-29T22:21:52.689Z,7.35
2022-09-29T22:24:19.582Z,8.20
2022-09-29T22:26:46.323Z,7.20
2022-09-29T22:29:13.301Z,7.00
2022-09-29T22:31:40.312Z,7.20
2022-09-29T22:34:11.028Z,6.85
2022-09-29T22:36:37.689Z,6.38
2022-09-29T22:39:05.640Z,6.10
2022-09-29T22:41:33.232Z,5.38
2022-09-29T22:44:00.785Z,5.38
2022-09-29T22:46:30.013Z,5.88
2022-09-29T22:48:57.507Z,5.07
2022-09-29T22:51:24.440Z,4.90
2022-09-29T22:53:51.878Z,5.07
2022-09-29T22:56:21.385Z,5.60
2022-09-29T22:58:51.418Z,4.10
2022-09-29T23:01:19.778Z,4.05
2022-09-29T23:03:47.029Z,3.72
2022-09-29T23:06:14.608Z,3.75
2022-09-29T23:08:41.749Z,3.88
2022-09-29T23:11:14.302Z,3.15
2022-09-29T23:13:41.092Z,3.65
2022-09-29T23:16:12.370Z,3.92
2022-09-29T23:18:44.965Z,3.33
2022-09-29T23:21:14.588Z,3.50
2022-09-29T23:23:41.249Z,3.70
2022-09-29T23:26:08.107Z,3.15
2022-09-29T23:28:34.695Z,3.38
2022-09-29T23:31:05.918Z,3.92
2022-09-29T23:33:33.231Z,3.58
2022-09-29T23:36:14.606Z,4.10
2022-09-29T23:39:01.828Z,5.82
2022-09-29T23:41:30.442Z,7.25
2022-09-29T23:43:59.472Z,5.20
2022-09-29T23:46:31.939Z,6.10
2022-09-29T23:49:04.452Z,6.47
2022-09-29T23:51:32.182Z,12.43
2022-09-29T23:54:01.669Z,11.88
2022-09-29T23:56:28.889Z,17.48
2022-09-29T23:58:55.942Z,13.55
